createdAt,value
2023-02-26T00:02:19.673Z,101300.44
2023-02-26T00:04:46.061Z,101305.78
2023-02-26T00:07:12.402Z,101309.34
2023-02-26T00:09:38.727Z,101314.53
2023-02-26T00:12:05.389Z,101314.50
2023-02-26T00:14:31.871Z,101319.81
2023-02-26T00:17:22.321Z,101318.72
2023-02-26T00:19:48.902Z,101321.34
2023-02-26T00:22:15.665Z,101324.75
2023-02-26T00:24:42.241Z,101322.97
2023-02-26T00:27:11.256Z,101315.78
2023-02-26T00:29:38.136Z,101313.16
2023-02-26T00:32:05.181Z,101310.38
2023-02-26T00:34:31.987Z,101311.13
2023-02-26T00:37:07.436Z,101326.00
2023-02-26T00:39:50.582Z,101334.81
2023-02-26T00:42:17.349Z,101336.50
2023-02-26T00:44:44.396Z,101332.06
2023-02-26T00:47:37.641Z,101343.41
2023-02-26T00:50:15.907Z,101344.19
2023-02-26T00:53:00.773Z,101353.00
2023-02-26T00:55:28.477Z,101348.59
2023-02-26T00:57:55.569Z,101350.41
2023-02-26T01:00:22.324Z,101345.94
2023-02-26T01:02:49.190Z,101349.44
2023-02-26T01:05:16.158Z,101349.44
2023-02-26T01:08:19.758Z,101348.53
2023-02-26T01:10:46.544Z,101352.94
2023-02-26T01:13:13.095Z,101346.66
2023-02-26T01:15:47.637Z,101360.75
2023-02-26T01:18:18.849Z,101356.25
2023-02-26T01:20:50.679Z,101361.63
2023-02-26T01:23:24.270Z,101359.69
2023-02-26T01:25:57.697Z,101373.91
2023-02-26T01:28:25.600Z,101370.38
2023-02-26T01:30:56.082Z,101375.66
2023-02-26T01:33:43.623Z,101381.75
2023-02-26T01:36:33.242Z,101379.19
2023-02-26T01:39:06.984Z,101381.00
2023-02-26T01:41:38.875Z,101387.00
2023-02-26T01:44:08.248Z,101382.72
2023-02-26T01:46:45.691Z,101394.31
2023-02-26T01:49:17.805Z,101388.25
2023-02-26T01:51:58.563Z,101390.75
2023-02-26T01:54:37.442Z,101400.53
2023-02-26T01:57:16.915Z,101396.09
2023-02-26T01:59:51.279Z,101394.41
2023-02-26T02:02:22.090Z,101394.59
2023-02-26T02:04:49.840Z,101392.03
2023-02-26T02:07:17.403Z,101399.00
2023-02-26T02:09:47.380Z,101404.34
2023-02-26T02:12:34.976Z,101405.28
2023-02-26T02:15:04.354Z,101404.50
2023-02-26T02:17:36.775Z,101415.06
2023-02-26T02:20:21.850Z,101413.38
2023-02-26T02:23:07.938Z,101413.38
2023-02-26T02:26:05.088Z,101417.00
2023-02-26T02:28:49.373Z,101420.69
2023-02-26T02:31:20.811Z,101421.53
2023-02-26T02:34:09.386Z,101423.38
2023-02-26T02:36:43.036Z,101419.09
2023-02-26T02:39:27.890Z,101425.22
2023-02-26T02:42:03.575Z,101434.03
2023-02-26T02:44:32.730Z,101433.16
2023-02-26T02:47:00.483Z,101436.72
2023-02-26T02:49:34.019Z,101438.47
2023-02-26T02:52:07.747Z,101442.06
2023-02-26T02:54:42.138Z,101446.41
2023-02-26T02:57:11.870Z,101456.13
2023-02-26T02:59:46.164Z,101456.97
2023-02-26T03:02:22.773Z,101451.78
2023-02-26T03:04:49.611Z,101454.50
2023-02-26T03:07:16.053Z,101460.63
2023-02-26T03:09:42.990Z,101465.09
2023-02-26T03:12:12.265Z,101473.03
2023-02-26T03:14:39.679Z,101469.59
2023-02-26T03:17:24.318Z,101467.06
2023-02-26T03:20:13.298Z,101474.94
2023-02-26T03:22:53.492Z,101482.91
2023-02-26T03:25:35.478Z,101488.19
2023-02-26T03:28:21.019Z,101489.00
2023-02-26T03:31:14.485Z,101491.63
2023-02-26T03:33:54.388Z,101501.38
2023-02-26T03:36:35.788Z,101494.41
2023-02-26T03:39:36.731Z,101503.09
2023-02-26T03:42:15.644Z,101499.66
2023-02-26T03:45:01.005Z,101511.94
2023-02-26T03:47:29.454Z,101506.66
2023-02-26T03:50:07.080Z,101516.38
2023-02-26T03:52:47.196Z,101518.13
2023-02-26T03:55:59.264Z,101523.34
2023-02-26T03:58:45.371Z,101526.88
2023-02-26T04:01:35.613Z,101529.38
2023-02-26T04:04:09.019Z,101525.03
2023-02-26T04:06:35.687Z,101530.25
2023-02-26T04:09:04.100Z,101527.66
2023-02-26T04:11:34.802Z,101534.75
2023-02-26T04:14:01.205Z,101535.59
2023-02-26T04:16:29.223Z,101547.00
2023-02-26T04:18:56.059Z,101541.75
2023-02-26T04:21:22.926Z,101548.72
2023-02-26T04:23:49.545Z,101552.22
2023-02-26T04:26:15.957Z,101555.78
2023-02-26T04:28:43.727Z,101550.56
2023-02-26T04:31:10.669Z,101562.75
2023-02-26T04:33:38.287Z,101567.19
2023-02-26T04:36:05.094Z,101573.34
2023-02-26T04:38:31.596Z,101569.81
2023-02-26T04:40:57.966Z,101578.56
2023-02-26T04:43:24.572Z,101584.72
2023-02-26T04:46:04.469Z,101580.38
2023-02-26T04:48:31.552Z,101581.19
2023-02-26T04:50:57.951Z,101582.03
2023-02-26T04:53:24.302Z,101598.66
2023-02-26T04:55:52.340Z,101587.34
2023-02-26T04:58:18.990Z,101594.38
2023-02-26T05:00:50.179Z,101593.50
2023-02-26T05:03:17.082Z,101608.41
2023-02-26T05:05:44.161Z,101607.50
2023-02-26T05:08:10.711Z,101610.19
2023-02-26T05:10:37.279Z,101614.56
2023-02-26T05:13:04.251Z,101618.94
2023-02-26T05:15:30.943Z,101624.25
2023-02-26T05:17:57.316Z,101617.25
2023-02-26T05:20:23.673Z,101630.38
2023-02-26T05:22:50.278Z,101620.78
2023-02-26T05:25:16.842Z,101624.34
2023-02-26T05:27:43.361Z,101630.44
2023-02-26T05:30:12.087Z,101626.03
2023-02-26T05:32:38.511Z,101630.38
2023-02-26T05:35:05.281Z,101639.16
2023-02-26T05:37:31.800Z,101635.66
2023-02-26T05:39:58.264Z,101636.53
2023-02-26T05:42:25.015Z,101639.19
2023-02-26T05:44:51.420Z,101643.59
2023-02-26T05:47:18.082Z,101641.88
2023-02-26T05:49:44.411Z,101648.88
2023-02-26T05:52:10.745Z,101647.06
2023-02-26T05:54:37.069Z,101655.91
2023-02-26T05:57:03.518Z,101655.00
2023-02-26T05:59:29.895Z,101651.53
2023-02-26T06:01:56.355Z,101659.38
2023-02-26T06:04:22.715Z,101662.03
2023-02-26T06:06:49.161Z,101668.13
2023-02-26T06:09:15.525Z,101677.72
2023-02-26T06:11:41.885Z,101679.47
2023-02-26T06:14:08.240Z,101684.75
2023-02-26T06:16:35.792Z,101691.72
2023-02-26T06:19:02.726Z,101698.75
2023-02-26T06:21:29.576Z,101706.66
2023-02-26T06:23:55.899Z,101707.53
2023-02-26T06:26:23.856Z,101718.91
2023-02-26T06:28:50.763Z,101725.97
2023-02-26T06:31:17.223Z,101732.06
2023-02-26T06:33:43.561Z,101729.41
2023-02-26T06:36:09.896Z,101732.03
2023-02-26T06:38:36.399Z,101738.16
2023-02-26T06:41:02.759Z,101745.16
2023-02-26T06:43:29.220Z,101754.78
2023-02-26T06:45:59.392Z,101746.03
2023-02-26T06:48:26.884Z,101751.25
2023-02-26T06:50:53.248Z,101765.25
2023-02-26T06:53:19.753Z,101767.06
2023-02-26T06:55:47.158Z,101764.38
2023-02-26T06:58:13.895Z,101772.25
2023-02-26T07:00:41.391Z,101780.97
2023-02-26T07:03:12.008Z,101785.34
2023-02-26T07:05:38.346Z,101786.19
2023-02-26T07:08:05.423Z,101793.19
2023-02-26T07:10:33.610Z,101788.78
2023-02-26T07:13:00.315Z,101800.16
2023-02-26T07:15:26.996Z,101797.50
2023-02-26T07:17:53.312Z,101798.34
2023-02-26T07:20:19.840Z,101804.44
2023-02-26T07:22:46.255Z,101800.91
2023-02-26T07:25:12.983Z,101806.13
2023-02-26T07:27:39.488Z,101813.09
2023-02-26T07:30:07.157Z,101817.41
2023-02-26T07:32:33.978Z,101813.88
2023-02-26T07:35:00.342Z,101811.22
2023-02-26T07:37:27.028Z,101820.88
2023-02-26T07:39:53.644Z,101828.72
2023-02-26T07:42:20.035Z,101823.41
2023-02-26T07:44:46.464Z,101826.88
2023-02-26T07:47:12.969Z,101839.97
2023-02-26T07:49:39.697Z,101839.03
2023-02-26T07:52:09.703Z,101851.25
2023-02-26T07:54:36.271Z,101847.72
2023-02-26T07:57:02.864Z,101843.25
2023-02-26T07:59:29.246Z,101859.91
2023-02-26T08:01:55.783Z,101861.66
2023-02-26T08:04:23.033Z,101854.56
2023-02-26T08:06:49.471Z,101854.47
2023-02-26T08:09:15.866Z,101851.75
2023-02-26T08:11:43.222Z,101857.00
2023-02-26T08:14:11.215Z,101865.75
2023-02-26T08:16:37.714Z,101864.78
2023-02-26T08:19:04.142Z,101877.03
2023-02-26T08:21:30.908Z,101879.66
2023-02-26T08:23:57.513Z,101875.19
2023-02-26T08:26:24.568Z,101878.56
2023-02-26T08:28:51.637Z,101888.19
2023-02-26T08:31:18.413Z,101880.28
2023-02-26T08:33:44.808Z,101889.00
2023-02-26T08:36:11.828Z,101896.81
2023-02-26T08:38:38.262Z,101896.75
2023-02-26T08:41:05.027Z,101901.13
2023-02-26T08:43:31.382Z,101904.63
2023-02-26T08:45:58.166Z,101913.22
2023-02-26T08:48:24.626Z,101910.59
2023-02-26T08:50:51.186Z,101914.91
2023-02-26T08:53:17.633Z,101918.47
2023-02-26T08:55:48.119Z,101920.06
2023-02-26T08:58:14.444Z,101918.94
2023-02-26T09:00:40.786Z,101928.41
2023-02-26T09:03:07.189Z,101930.03
2023-02-26T09:05:33.604Z,101925.50
2023-02-26T09:08:00.010Z,101928.94
2023-02-26T09:10:26.447Z,101928.72
2023-02-26T09:12:52.773Z,101950.78
2023-02-26T09:15:19.880Z,101937.66
2023-02-26T09:17:47.996Z,101950.53
2023-02-26T09:20:15.312Z,101947.75
2023-02-26T09:22:41.686Z,101950.97
2023-02-26T09:25:08.566Z,101960.75
2023-02-26T09:27:35.528Z,101968.53
2023-02-26T09:30:03.387Z,101964.03
2023-02-26T09:32:29.942Z,101968.19
2023-02-26T09:34:56.417Z,101960.63
2023-02-26T09:37:23.060Z,101969.50
2023-02-26T09:39:49.386Z,101983.78
2023-02-26T09:42:44.355Z,101975.66
2023-02-26T09:45:30.650Z,101972.66
2023-02-26T09:47:57.525Z,101990.03
2023-02-26T09:50:39.289Z,101985.94
2023-02-26T09:53:21.691Z,101995.59
2023-02-26T09:55:50.662Z,101994.59
2023-02-26T09:58:50.323Z,101995.47
2023-02-26T10:01:31.735Z,101994.47
2023-02-26T10:04:20.790Z,101996.78
2023-02-26T10:07:05.570Z,102001.81
2023-02-26T10:09:48.963Z,102004.22
2023-02-26T10:12:21.619Z,101997.16
2023-02-26T10:14:58.830Z,101997.75
2023-02-26T10:17:42.094Z,102011.69
2023-02-26T10:20:23.354Z,102017.78
2023-02-26T10:23:01.739Z,102013.47
2023-02-26T10:25:46.571Z,102016.38
2023-02-26T10:28:31.675Z,102009.06
2023-02-26T10:31:09.199Z,102022.25
2023-02-26T10:33:50.149Z,102017.59
2023-02-26T10:36:27.817Z,102024.06
2023-02-26T10:39:09.522Z,102031.31
2023-02-26T10:41:37.171Z,102036.31
2023-02-26T10:44:18.814Z,102034.34
2023-02-26T10:47:02.598Z,102043.38
2023-02-26T10:49:36.430Z,102040.38
2023-02-26T10:52:12.317Z,102048.47
2023-02-26T10:55:04.013Z,102045.09
2023-02-26T10:57:34.468Z,102053.03
2023-02-26T11:00:02.156Z,102057.41
2023-02-26T11:02:37.592Z,102044.84
2023-02-26T11:05:07.953Z,102056.97
2023-02-26T11:07:37.771Z,102063.59
2023-02-26T11:10:04.999Z,102056.75
2023-02-26T11:12:32.413Z,102063.53
2023-02-26T11:15:01.768Z,102051.78
2023-02-26T11:17:32.207Z,102055.19
2023-02-26T11:20:05.351Z,102062.59
2023-02-26T11:22:36.024Z,102067.06
2023-02-26T11:25:03.934Z,102073.13
2023-02-26T11:27:34.336Z,102077.47
2023-02-26T11:30:07.953Z,102064.25
2023-02-26T11:32:39.290Z,102067.97
2023-02-26T11:35:09.155Z,102053.50
2023-02-26T11:37:40.520Z,102048.56
2023-02-26T11:40:26.648Z,102043.97
2023-02-26T11:42:56.060Z,102041.59
2023-02-26T11:45:22.748Z,102044.47
2023-02-26T11:47:55.787Z,102047.28
2023-02-26T11:50:23.465Z,102051.88
2023-02-26T11:53:04.027Z,102037.56
2023-02-26T11:55:44.413Z,102046.00
2023-02-26T11:58:23.687Z,102039.06
2023-02-26T12:00:54.398Z,102046.22
2023-02-26T12:03:23.978Z,102036.91
2023-02-26T12:05:53.105Z,102037.78
2023-02-26T12:08:27.487Z,102055.19
2023-02-26T12:11:08.254Z,102053.81
2023-02-26T12:13:58.164Z,102045.34
2023-02-26T12:16:49.538Z,102055.06
2023-02-26T12:19:38.201Z,102044.09
2023-02-26T12:22:29.708Z,102037.53
2023-02-26T12:25:17.791Z,102047.22
2023-02-26T12:28:01.338Z,102043.75
2023-02-26T12:30:52.628Z,102051.09
2023-02-26T12:33:57.919Z,102053.88
2023-02-26T12:36:56.522Z,102047.34
2023-02-26T12:39:44.939Z,102040.19
2023-02-26T12:42:59.549Z,102048.41
2023-02-26T12:45:39.734Z,102046.75
2023-02-26T12:48:43.322Z,102051.63
2023-02-26T12:51:26.593Z,102039.75
2023-02-26T12:54:06.788Z,102044.34
2023-02-26T12:57:00.702Z,102044.66
2023-02-26T12:59:30.177Z,102055.56
2023-02-26T13:02:25.082Z,102048.19
2023-02-26T13:05:24.047Z,102045.34
2023-02-26T13:08:09.131Z,102047.31
2023-02-26T13:11:05.270Z,102049.00
2023-02-26T13:13:59.488Z,102042.41
2023-02-26T13:16:48.033Z,102053.75
2023-02-26T13:19:43.132Z,102054.22
2023-02-26T13:22:20.118Z,102052.97
2023-02-26T13:24:53.658Z,102054.09
2023-02-26T13:27:26.127Z,102058.03
2023-02-26T13:30:04.779Z,102050.13
2023-02-26T13:32:33.736Z,102055.53
2023-02-26T13:35:06.127Z,102052.38
2023-02-26T13:37:42.079Z,102049.63
2023-02-26T13:40:14.232Z,102053.19
2023-02-26T13:42:51.408Z,102045.38
2023-02-26T13:45:46.267Z,102042.19
2023-02-26T13:48:35.963Z,102046.50
2023-02-26T13:51:30.587Z,102038.25
2023-02-26T13:54:17.076Z,102032.81
2023-02-26T13:56:46.495Z,102050.97
2023-02-26T13:59:13.234Z,102033.19
2023-02-26T14:01:50.115Z,102030.63
2023-02-26T14:04:22.464Z,102037.09
2023-02-26T14:06:54.726Z,102035.47
2023-02-26T14:09:24.068Z,102034.03
2023-02-26T14:12:23.964Z,102036.53
2023-02-26T14:15:02.319Z,102035.59
2023-02-26T14:17:34.394Z,102036.66
2023-02-26T14:20:15.201Z,102040.94
2023-02-26T14:22:43.258Z,102039.44
2023-02-26T14:25:22.602Z,102046.19
2023-02-26T14:27:49.847Z,102043.25
2023-02-26T14:30:28.976Z,102040.47
2023-02-26T14:32:56.060Z,102045.03
2023-02-26T14:35:25.904Z,102041.44
2023-02-26T14:38:02.960Z,102034.44
2023-02-26T14:40:44.716Z,102034.81
2023-02-26T14:43:19.127Z,102034.34
2023-02-26T14:45:45.968Z,102032.34
2023-02-26T14:48:20.339Z,102034.84
2023-02-26T14:51:01.833Z,102030.44
2023-02-26T14:53:50.163Z,102034.63
2023-02-26T14:56:31.452Z,102029.09
2023-02-26T14:59:28.975Z,102025.16
2023-02-26T15:02:17.167Z,102029.63
2023-02-26T15:04:58.593Z,102034.88
2023-02-26T15:07:24.992Z,102038.28
2023-02-26T15:10:00.129Z,102037.13
2023-02-26T15:12:42.340Z,102040.88
2023-02-26T15:15:27.506Z,102048.97
2023-02-26T15:17:56.862Z,102048.75
2023-02-26T15:20:54.243Z,102049.50
2023-02-26T15:23:29.946Z,102052.03
2023-02-26T15:25:59.125Z,102056.06
2023-02-26T15:28:32.914Z,102052.75
2023-02-26T15:31:01.341Z,102061.78
2023-02-26T15:33:29.436Z,102057.59
2023-02-26T15:35:58.901Z,102061.22
2023-02-26T15:39:21.217Z,102061.00
2023-02-26T15:41:49.075Z,102063.69
2023-02-26T15:44:21.624Z,102070.69
2023-02-26T15:46:53.596Z,102065.09
2023-02-26T15:49:20.288Z,102071.53
2023-02-26T15:51:47.171Z,102072.22
2023-02-26T15:54:20.727Z,102073.75
2023-02-26T15:56:48.307Z,102073.56
2023-02-26T15:59:29.185Z,102076.84
2023-02-26T16:01:56.039Z,102077.56
2023-02-26T16:04:23.554Z,102083.88
2023-02-26T16:06:54.583Z,102078.44
2023-02-26T16:09:25.896Z,102090.81
2023-02-26T16:11:55.427Z,102087.34
2023-02-26T16:14:27.215Z,102096.22
2023-02-26T16:16:56.629Z,102095.78
2023-02-26T16:19:34.722Z,102097.72
2023-02-26T16:22:06.441Z,102095.97
2023-02-26T16:24:33.643Z,102095.09
2023-02-26T16:27:04.791Z,102096.13
2023-02-26T16:29:34.925Z,102098.00
2023-02-26T16:32:04.675Z,102100.38
2023-02-26T16:34:37.820Z,102102.31
2023-02-26T16:37:18.170Z,102106.22
2023-02-26T16:39:45.496Z,102110.41
2023-02-26T16:42:19.795Z,102113.16
2023-02-26T16:44:50.691Z,102114.94
2023-02-26T16:47:19.847Z,102113.91
2023-02-26T16:49:47.889Z,102120.06
2023-02-26T16:52:18.501Z,102121.09
2023-02-26T16:54:54.623Z,102120.41
2023-02-26T16:57:32.602Z,102128.34
2023-02-26T17:00:06.586Z,102131.16
2023-02-26T17:02:36.444Z,102144.50
2023-02-26T17:05:17.517Z,102144.72
2023-02-26T17:07:52.828Z,102143.09
2023-02-26T17:10:33.877Z,102145.03
2023-02-26T17:13:17.337Z,102141.53
2023-02-26T17:15:46.378Z,102141.53
2023-02-26T17:18:13.765Z,102140.81
2023-02-26T17:20:40.604Z,102146.16
2023-02-26T17:23:11.137Z,102153.25
2023-02-26T17:25:50.512Z,102155.91
2023-02-26T17:28:26.963Z,102156.91
2023-02-26T17:30:54.574Z,102158.88
2023-02-26T17:33:21.768Z,102155.41
2023-02-26T17:35:49.295Z,102163.41
2023-02-26T17:38:16.376Z,102164.31
2023-02-26T17:40:45.235Z,102169.63
2023-02-26T17:43:11.647Z,102166.19
2023-02-26T17:45:40.344Z,102172.38
2023-02-26T17:48:07.627Z,102175.94
2023-02-26T17:50:54.762Z,102176.88
2023-02-26T17:53:23.760Z,102175.13
2023-02-26T17:55:56.355Z,102175.16
2023-02-26T17:58:30.647Z,102184.81
2023-02-26T18:00:57.250Z,102194.50
2023-02-26T18:03:23.992Z,102200.72
2023-02-26T18:05:53.011Z,102198.06
2023-02-26T18:08:40.607Z,102193.72
2023-02-26T18:11:07.913Z,102199.94
2023-02-26T18:13:34.272Z,102191.13
2023-02-26T18:16:02.676Z,102199.06
2023-02-26T18:18:29.984Z,102197.34
2023-02-26T18:20:56.456Z,102195.56
2023-02-26T18:23:22.866Z,102192.88
2023-02-26T18:25:52.652Z,102197.34
2023-02-26T18:28:27.785Z,102196.41
2023-02-26T18:30:56.398Z,102196.47
2023-02-26T18:33:23.759Z,102191.19
2023-02-26T18:35:56.584Z,102200.91
2023-02-26T18:38:26.065Z,102197.44
2023-02-26T18:40:53.680Z,102203.72
2023-02-26T18:43:20.461Z,102198.53
2023-02-26T18:45:48.904Z,102206.47
2023-02-26T18:48:17.854Z,102202.97
2023-02-26T18:50:45.524Z,102203.78
2023-02-26T18:53:13.376Z,102202.03
2023-02-26T18:55:39.717Z,102205.66
2023-02-26T18:58:06.117Z,102203.06
2023-02-26T19:00:32.514Z,102204.75
2023-02-26T19:02:58.835Z,102205.66
2023-02-26T19:05:26.493Z,102205.72
2023-02-26T19:07:54.142Z,102206.69
2023-02-26T19:10:21.576Z,102208.50
2023-02-26T19:12:48.073Z,102218.16
2023-02-26T19:15:14.510Z,102217.34
2023-02-26T19:17:42.380Z,102218.28
2023-02-26T19:20:09.837Z,102224.50
2023-02-26T19:22:36.472Z,102227.13
2023-02-26T19:25:03.683Z,102227.22
2023-02-26T19:27:30.071Z,102230.72
2023-02-26T19:29:56.440Z,102221.13
2023-02-26T19:32:22.972Z,102229.91
2023-02-26T19:34:49.720Z,102233.44
2023-02-26T19:37:16.045Z,102229.91
2023-02-26T19:39:42.424Z,102236.03
2023-02-26T19:42:08.817Z,102242.16
2023-02-26T19:44:35.728Z,102236.97
2023-02-26T19:47:03.149Z,102246.66
2023-02-26T19:49:29.876Z,102245.78
2023-02-26T19:51:56.540Z,102253.75
2023-02-26T19:54:22.939Z,102253.72
2023-02-26T19:56:49.828Z,102258.16
2023-02-26T19:59:17.372Z,102260.78
2023-02-26T20:01:43.902Z,102264.31
2023-02-26T20:04:10.537Z,102262.53
2023-02-26T20:06:36.997Z,102257.22
2023-02-26T20:09:04.514Z,102271.28
2023-02-26T20:11:30.891Z,102270.44
2023-02-26T20:13:57.404Z,102274.00
2023-02-26T20:16:24.587Z,102272.19
2023-02-26T20:18:51.234Z,102266.91
2023-02-26T20:21:17.858Z,102277.47
2023-02-26T20:23:44.257Z,102283.66
2023-02-26T20:26:13.223Z,102285.41
2023-02-26T20:28:40.880Z,102284.47
2023-02-26T20:31:07.964Z,102293.31
2023-02-26T20:33:36.050Z,102299.44
2023-02-26T20:36:03.310Z,102293.19
2023-02-26T20:38:29.726Z,102299.41
2023-02-26T20:40:56.709Z,102307.22
2023-02-26T20:43:24.929Z,102305.47
2023-02-26T20:45:51.998Z,102302.81
2023-02-26T20:48:18.341Z,102311.59
2023-02-26T20:50:44.827Z,102308.03
2023-02-26T20:53:11.206Z,102300.84
2023-02-26T20:55:37.591Z,102307.13
2023-02-26T20:58:04.378Z,102312.38
2023-02-26T21:00:31.154Z,102305.41
2023-02-26T21:02:57.558Z,102313.31
2023-02-26T21:05:24.206Z,102311.59
2023-02-26T21:07:51.031Z,102312.50
2023-02-26T21:10:18.853Z,102316.91
2023-02-26T21:12:45.427Z,102323.88
2023-02-26T21:15:12.838Z,102316.91
2023-02-26T21:17:41.055Z,102315.19
2023-02-26T21:20:09.978Z,102313.44
2023-02-26T21:22:36.400Z,102323.09
2023-02-26T21:25:06.687Z,102322.22
2023-02-26T21:27:34.193Z,102317.88
2023-02-26T21:30:00.530Z,102324.03
2023-02-26T21:32:27.119Z,102324.97
2023-02-26T21:34:53.578Z,102326.72
2023-02-26T21:37:19.902Z,102325.03
2023-02-26T21:39:47.986Z,102318.00
2023-02-26T21:42:14.335Z,102318.00
2023-02-26T21:44:41.017Z,102318.94
2023-02-26T21:47:07.660Z,102321.63
2023-02-26T21:49:34.239Z,102329.56
2023-02-26T21:52:03.672Z,102326.06
2023-02-26T21:54:30.465Z,102332.28
2023-02-26T21:56:57.470Z,102326.19
2023-02-26T21:59:23.895Z,102328.84
2023-02-26T22:01:50.887Z,102331.47
2023-02-26T22:04:18.478Z,102330.56
2023-02-26T22:06:45.409Z,102334.13
2023-02-26T22:09:11.953Z,102331.53
2023-02-26T22:11:38.355Z,102332.41
2023-02-26T22:14:04.863Z,102337.75
2023-02-26T22:16:31.269Z,102338.66
2023-02-26T22:18:57.640Z,102328.16
2023-02-26T22:21:24.290Z,102332.53
2023-02-26T22:23:50.795Z,102331.66
2023-02-26T22:26:17.641Z,102338.72
2023-02-26T22:28:44.004Z,102333.47
2023-02-26T22:31:10.413Z,102337.00
2023-02-26T22:33:36.787Z,102338.72
2023-02-26T22:36:03.521Z,102341.38
2023-02-26T22:38:30.899Z,102344.91
2023-02-26T22:40:57.540Z,102342.31
2023-02-26T22:43:23.886Z,102347.56
2023-02-26T22:45:50.295Z,102348.47
2023-02-26T22:48:17.529Z,102354.63
2023-02-26T22:50:44.203Z,102346.72
2023-02-26T22:53:10.591Z,102352.88
2023-02-26T22:55:36.978Z,102358.16
2023-02-26T22:58:03.533Z,102358.16
2023-02-26T23:00:30.112Z,102358.16
2023-02-26T23:02:56.465Z,102358.19
2023-02-26T23:05:23.189Z,102354.69
2023-02-26T23:07:49.608Z,102359.97
2023-02-26T23:10:18.728Z,102355.56
2023-02-26T23:12:46.852Z,102363.50
2023-02-26T23:15:14.287Z,102367.00
2023-02-26T23:17:41.774Z,102364.34
2023-02-26T23:20:10.046Z,102371.41
2023-02-26T23:22:37.231Z,102369.63
2023-02-26T23:25:03.883Z,102369.66
2023-02-26T23:27:30.244Z,102379.31
2023-02-26T23:29:56.583Z,102375.81
2023-02-26T23:32:22.998Z,102378.44
2023-02-26T23:34:49.439Z,102383.72
2023-02-26T23:37:15.843Z,102381.06
2023-02-26T23:39:42.169Z,102377.59
2023-02-26T23:42:08.593Z,102374.94
2023-02-26T23:44:34.963Z,102381.97
2023-02-26T23:47:01.287Z,102383.72
2023-02-26T23:49:27.626Z,102383.72
2023-02-26T23:51:53.965Z,102389.00
2023-02-26T23:54:20.309Z,102388.13
2023-02-26T23:56:47.514Z,102387.25
2023-02-26T23:59:13.915Z,102383.72
